Time,TemperatureF,DewpointF,PressureIn,WindDirection,WindDirectionDegrees,WindSpeedMPH,WindSpeedGustMPH,Humidity,HourlyPrecipIn,Conditions,Clouds,dailyrainin,SoftwareType,DateUTC
2013-03-05 00:07:00,37.4,9.5,30.00,North,-999,0.0,2.7,31,0.00,,,-99.99,FreeWX 2.04,2013-03-05 05:07:00,
2013-03-05 00:17:00,37.6,9.7,30.00,North,-999,0.0,0.0,31,0.00,,,-99.99,FreeWX 2.04,2013-03-05 05:17:00,
2013-03-05 00:27:00,37.2,11.5,30.00,NW,304,2.0,4.9,34,0.00,,,-99.99,FreeWX 2.04,2013-03-05 05:27:00,
2013-03-05 00:37:00,37.0,10.0,29.97,NW,320,2.0,4.5,32,0.00,,,-99.99,FreeWX 2.04,2013-03-05 05:37:00,
2013-03-05 00:47:00,37.4,9.5,29.97,NNW,327,3.0,5.8,31,0.00,,,-99.99,FreeWX 2.04,2013-03-05 05:47:00,
2013-03-05 00:57:00,37.6,9.0,29.97,NNW,337,2.0,4.9,30,0.00,,,-99.99,FreeWX 2.04,2013-03-05 05:57:00,
2013-03-05 01:07:00,37.6,9.0,29.97,NW,323,2.0,7.4,30,0.00,,,-99.99,FreeWX 2.04,2013-03-05 06:07:00,
2013-03-05 01:17:00,37.6,8.2,29.97,NNW,330,2.0,4.0,29,0.00,,,-99.99,FreeWX 2.04,2013-03-05 06:17:00,
2013-03-05 01:27:00,37.6,8.2,29.97,NW,305,2.0,4.5,29,0.00,,,-99.99,FreeWX 2.04,2013-03-05 06:27:00,
2013-03-05 01:37:00,37.6,8.2,29.97,North,350,2.0,6.7,29,0.00,,,-99.99,FreeWX 2.04,2013-03-05 06:37:00,
2013-03-05 01:47:00,37.2,8.6,29.97,North,350,3.0,5.8,30,0.00,,,-99.99,FreeWX 2.04,2013-03-05 06:47:00,
2013-03-05 01:57:00,37.4,8.1,29.97,NW,309,1.0,4.5,29,0.00,,,-99.99,FreeWX 2.04,2013-03-05 06:57:00,
2013-03-05 02:07:00,36.9,8.4,29.97,North,-999,0.0,3.6,30,0.00,,,-99.99,FreeWX 2.04,2013-03-05 07:07:00,
2013-03-05 02:17:00,37.0,8.6,29.97,North,350,1.0,4.5,30,0.00,,,-99.99,FreeWX 2.04,2013-03-05 07:17:00,
2013-03-05 02:27:00,36.9,8.4,29.97,North,-999,0.0,4.0,30,0.00,,,-99.99,FreeWX 2.04,2013-03-05 07:27:00,
2013-03-05 02:37:00,37.0,8.6,29.97,WNW,301,2.0,4.0,30,0.00,,,-99.99,FreeWX 2.04,2013-03-05 07:37:00,
2013-03-05 02:47:00,37.0,7.7,29.97,SW,214,3.0,4.0,29,0.00,,,-99.99,FreeWX 2.04,2013-03-05 07:47:00,
2013-03-05 02:57:00,37.0,7.7,29.97,South,184,3.0,5.4,29,0.00,,,-99.99,FreeWX 2.04,2013-03-05 07:57:00,
2013-03-05 03:07:00,37.2,7.9,29.97,South,190,3.0,5.8,29,0.00,,,-99.99,FreeWX 2.04,2013-03-05 08:07:00,
2013-03-05 03:17:00,37.0,7.7,29.94,South,189,3.0,6.7,29,0.00,,,-99.99,FreeWX 2.04,2013-03-05 08:17:00,
2013-03-05 03:27:00,37.0,7.7,29.94,South,183,4.0,6.7,29,0.00,,,-99.99,FreeWX 2.04,2013-03-05 08:27:00,
2013-03-05 03:37:00,36.9,7.7,29.94,SSW,199,2.0,4.5,29,0.00,,,-99.99,FreeWX 2.04,2013-03-05 08:37:00,
2013-03-05 03:47:00,36.9,8.4,29.94,WSW,241,2.0,4.5,30,0.00,,,-99.99,FreeWX 2.04,2013-03-05 08:47:00,
2013-03-05 03:57:00,36.9,8.4,29.94,NW,306,2.0,6.3,30,0.00,,,-99.99,FreeWX 2.04,2013-03-05 08:57:00,
2013-03-05 04:07:00,36.9,8.4,29.94,SSE,168,1.0,4.5,30,0.00,,,-99.99,FreeWX 2.04,2013-03-05 09:07:00,
2013-03-05 04:17:00,36.7,8.2,29.94,South,179,1.0,4.5,30,0.00,,,-99.99,FreeWX 2.04,2013-03-05 09:17:00,
2013-03-05 04:27:00,36.7,8.2,29.94,NW,313,2.0,4.9,30,0.00,,,-99.99,FreeWX 2.04,2013-03-05 09:27:00,
2013-03-05 04:37:00,36.7,9.0,29.94,North,-999,0.0,3.6,31,0.00,,,-99.99,FreeWX 2.04,2013-03-05 09:37:00,
2013-03-05 04:47:00,36.7,9.0,29.91,NW,312,2.0,5.8,31,0.00,,,-99.99,FreeWX 2.04,2013-03-05 09:47:00,
2013-03-05 04:57:00,36.5,8.8,29.91,SW,225,3.0,5.4,31,0.00,,,-99.99,FreeWX 2.04,2013-03-05 09:57:00,
2013-03-05 05:07:00,36.5,9.5,29.91,NNW,338,3.0,5.4,32,0.00,,,-99.99,FreeWX 2.04,2013-03-05 10:07:00,
2013-03-05 05:17:00,36.5,9.5,29.91,NNW,331,2.0,5.8,32,0.00,,,-99.99,FreeWX 2.04,2013-03-05 10:17:00,
2013-03-05 05:27:00,36.3,9.3,29.91,NNW,347,2.0,6.3,32,0.00,,,-99.99,FreeWX 2.04,2013-03-05 10:27:00,
2013-03-05 05:37:00,36.3,10.0,29.91,NNE,17,1.0,5.4,33,0.00,,,-99.99,FreeWX 2.04,2013-03-05 10:37:00,
2013-03-05 05:47:00,36.3,10.0,29.94,South,187,1.0,4.5,33,0.00,,,-99.99,FreeWX 2.04,2013-03-05 10:47:00,
2013-03-05 05:57:00,36.3,11.3,29.94,SSW,206,2.0,5.4,35,0.00,,,-99.99,FreeWX 2.04,2013-03-05 10:57:00,
2013-03-05 06:07:00,36.1,11.8,29.94,SSW,210,2.0,5.4,36,0.00,,,-99.99,FreeWX 2.04,2013-03-05 11:07:00,
2013-03-05 06:17:00,36.0,12.9,29.91,South,178,2.0,4.5,38,0.00,,,-99.99,FreeWX 2.04,2013-03-05 11:17:00,
2013-03-05 06:27:00,36.0,13.5,29.91,South,189,2.0,4.9,39,0.00,,,-99.99,FreeWX 2.04,2013-03-05 11:27:00,
2013-03-05 06:37:00,36.1,13.1,29.91,South,171,1.0,4.0,38,0.00,,,-99.99,FreeWX 2.04,2013-03-05 11:37:00,
2013-03-05 06:47:00,36.3,13.1,29.91,North,-999,0.0,4.5,38,0.00,,,-99.99,FreeWX 2.04,2013-03-05 11:47:00,
2013-03-05 06:57:00,36.3,12.6,29.91,North,-999,0.0,2.7,37,0.00,,,-99.99,FreeWX 2.04,2013-03-05 11:57:00,
2013-03-05 07:07:00,36.3,13.1,29.91,North,-999,0.0,0.0,38,0.00,,,-99.99,FreeWX 2.04,2013-03-05 12:07:00,
2013-03-05 07:17:00,36.3,13.1,29.91,North,-999,0.0,0.0,38,0.00,,,-99.99,FreeWX 2.04,2013-03-05 12:17:00,
2013-03-05 07:27:00,36.5,14.0,29.91,North,-999,0.0,0.0,39,0.00,,,-99.99,FreeWX 2.04,2013-03-05 12:27:00,
2013-03-05 07:37:00,36.9,14.9,29.91,North,-999,0.0,0.0,40,0.00,,,-99.99,FreeWX 2.04,2013-03-05 12:37:00,
2013-03-05 07:47:00,36.9,14.9,29.91,North,-999,0.0,0.0,40,0.00,,,-99.99,FreeWX 2.04,2013-03-05 12:47:00,
2013-03-05 07:57:00,36.9,14.2,29.91,North,-999,0.0,0.0,39,0.00,,,-99.99,FreeWX 2.04,2013-03-05 12:57:00,
2013-03-05 08:07:00,36.7,14.0,29.88,North,-999,0.0,0.0,39,0.00,,,-99.99,FreeWX 2.04,2013-03-05 13:07:00,
2013-03-05 08:17:00,37.0,14.9,29.88,North,-999,0.0,0.0,40,0.00,,,-99.99,FreeWX 2.04,2013-03-05 13:17:00,
2013-03-05 08:27:00,37.4,15.3,29.88,North,-999,0.0,0.0,40,0.00,,,-99.99,FreeWX 2.04,2013-03-05 13:27:00,
2013-03-05 08:37:00,37.4,15.3,29.88,North,-999,0.0,0.0,40,0.00,,,-99.99,FreeWX 2.04,2013-03-05 13:37:00,
2013-03-05 08:48:00,37.6,15.4,29.91,North,-999,0.0,0.0,40,0.00,,,-99.99,FreeWX 2.04,2013-03-05 13:48:00,
2013-03-05 08:58:00,37.8,15.6,29.91,North,-999,0.0,0.0,40,0.00,,,-99.99,FreeWX 2.04,2013-03-05 13:58:00,
2013-03-05 09:08:00,37.9,16.3,29.88,North,-999,0.0,0.0,41,0.00,,,-99.99,FreeWX 2.04,2013-03-05 14:08:00,
2013-03-05 09:18:00,38.1,16.5,29.88,North,-999,0.0,0.0,41,0.00,,,-99.99,FreeWX 2.04,2013-03-05 14:18:00,
2013-03-05 09:28:00,38.5,16.3,29.88,North,-999,0.0,0.0,40,0.00,,,-99.99,FreeWX 2.04,2013-03-05 14:28:00,
2013-03-05 09:38:00,38.8,16.5,29.88,North,-999,0.0,4.5,40,0.00,,,-99.99,FreeWX 2.04,2013-03-05 14:38:00,
2013-03-05 09:48:00,39.4,17.1,29.88,NNW,344,3.0,6.3,40,0.00,,,-99.99,FreeWX 2.04,2013-03-05 14:48:00,
2013-03-05 09:58:00,39.7,17.4,29.88,NNW,338,1.0,4.0,40,0.00,,,-99.99,FreeWX 2.04,2013-03-05 14:58:00,
2013-03-05 10:08:00,39.7,17.4,29.85,West,278,1.0,5.4,40,0.00,,,-99.99,FreeWX 2.04,2013-03-05 15:08:00,
2013-03-05 10:18:00,39.4,17.1,29.85,NNW,329,1.0,4.9,40,0.00,,,-99.99,FreeWX 2.04,2013-03-05 15:18:00,
2013-03-05 10:28:00,39.9,18.1,29.85,NNW,339,4.0,6.7,41,0.00,,,-99.99,FreeWX 2.04,2013-03-05 15:28:00,
2013-03-05 10:38:00,40.3,18.5,29.85,NW,311,2.0,4.0,41,0.00,,,-99.99,FreeWX 2.04,2013-03-05 15:38:00,
2013-03-05 10:48:00,40.3,18.5,29.85,NNW,332,3.0,5.4,41,0.00,,,-99.99,FreeWX 2.04,2013-03-05 15:48:00,
2013-03-05 10:58:00,40.5,18.7,29.85,NNW,344,3.0,6.3,41,0.00,,,-99.99,FreeWX 2.04,2013-03-05 15:58:00,
2013-03-05 11:08:00,41.0,18.5,29.82,NNW,331,4.0,6.9,40,0.00,,,-99.99,FreeWX 2.04,2013-03-05 16:08:00,
2013-03-05 11:18:00,40.8,18.3,29.82,NW,326,2.0,6.7,40,0.00,,,-99.99,FreeWX 2.04,2013-03-05 16:18:00,
2013-03-05 11:28:00,40.6,18.1,29.82,NNW,336,3.0,6.3,40,0.00,,,-99.99,FreeWX 2.04,2013-03-05 16:28:00,
2013-03-05 11:38:00,40.6,18.9,29.79,NNW,334,4.0,6.7,41,0.00,,,-99.99,FreeWX 2.04,2013-03-05 16:38:00,
2013-03-05 11:48:00,41.4,19.9,29.79,NNW,336,3.0,7.8,42,0.00,,,-99.99,FreeWX 2.04,2013-03-05 16:48:00,
2013-03-05 11:58:00,42.3,20.8,29.79,NNW,328,2.0,8.3,42,0.00,,,-99.99,FreeWX 2.04,2013-03-05 16:58:00,
2013-03-05 12:08:00,43.5,21.4,29.79,NNW,334,3.0,6.3,41,0.00,,,-99.99,FreeWX 2.04,2013-03-05 17:08:00,
2013-03-05 12:18:00,44.6,21.7,29.76,NNW,336,4.0,7.8,40,0.00,,,-99.99,FreeWX 2.04,2013-03-05 17:18:00,
2013-03-05 12:28:00,46.4,22.1,29.76,NNW,336,4.0,7.8,38,0.00,,,-99.99,FreeWX 2.04,2013-03-05 17:28:00,
2013-03-05 12:38:00,47.8,22.3,29.76,NNW,334,4.0,10.1,36,0.00,,,-99.99,FreeWX 2.04,2013-03-05 17:38:00,
2013-03-05 12:48:00,48.6,19.4,29.76,NNW,327,5.0,8.7,31,0.00,,,-99.99,FreeWX 2.04,2013-03-05 17:48:00,
2013-03-05 12:58:00,47.8,18.0,29.76,NNW,336,5.0,8.7,30,0.00,,,-99.99,FreeWX 2.04,2013-03-05 17:58:00,
2013-03-05 13:08:00,47.7,18.5,29.74,NW,326,5.0,8.3,31,0.00,,,-99.99,FreeWX 2.04,2013-03-05 18:08:00,
2013-03-05 13:18:00,48.6,20.1,29.74,NNW,334,4.0,6.9,32,0.00,,,-99.99,FreeWX 2.04,2013-03-05 18:18:00,
2013-03-05 13:28:00,48.7,20.3,29.74,NNW,337,4.0,7.8,32,0.00,,,-99.99,FreeWX 2.04,2013-03-05 18:28:00,
2013-03-05 13:38:00,49.1,19.8,29.71,NNW,327,5.0,11.0,31,0.00,,,-99.99,FreeWX 2.04,2013-03-05 18:38:00,
2013-03-05 13:48:00,48.9,19.6,29.71,NNW,330,5.0,7.4,31,0.00,,,-99.99,FreeWX 2.04,2013-03-05 18:48:00,
2013-03-05 13:58:00,48.4,20.7,29.71,NNW,327,5.0,7.8,33,0.00,,,-99.99,FreeWX 2.04,2013-03-05 18:58:00,
2013-03-05 14:08:00,48.4,21.4,29.68,NNW,332,5.0,8.3,34,0.00,,,-99.99,FreeWX 2.04,2013-03-05 19:08:00,
2013-03-05 14:18:00,48.2,22.5,29.68,NNW,329,4.0,7.4,36,0.00,,,-99.99,FreeWX 2.04,2013-03-05 19:18:00,
2013-03-05 14:28:00,48.0,22.3,29.68,NNW,337,4.0,5.8,36,0.00,,,-99.99,FreeWX 2.04,2013-03-05 19:28:00,
2013-03-05 14:38:00,47.8,23.5,29.68,NNW,330,3.0,5.4,38,0.00,,,-99.99,FreeWX 2.04,2013-03-05 19:38:00,
2013-03-05 14:48:00,47.3,23.0,29.68,NNW,336,1.0,4.5,38,0.04,,,-99.99,FreeWX 2.04,2013-03-05 19:48:00,
2013-03-05 14:58:00,46.8,24.3,29.68,West,274,1.0,4.0,41,0.04,,,-99.99,FreeWX 2.04,2013-03-05 19:58:00,
2013-03-05 15:08:00,46.6,26.4,29.65,WNW,286,2.0,5.8,45,0.12,,,-99.99,FreeWX 2.04,2013-03-05 20:08:00,
2013-03-05 15:18:00,46.2,27.7,29.62,NW,311,3.0,6.3,48,0.12,,,-99.99,FreeWX 2.04,2013-03-05 20:18:00,
2013-03-05 15:28:00,46.4,28.8,29.62,WNW,287,1.0,6.3,50,0.12,,,-99.99,FreeWX 2.04,2013-03-05 20:28:00,
2013-03-05 15:38:00,46.4,29.3,29.62,SSW,203,2.0,7.4,51,0.16,,,-99.99,FreeWX 2.04,2013-03-05 20:38:00,
2013-03-05 15:48:00,46.2,29.7,29.59,South,186,1.0,5.4,52,0.12,,,-99.99,FreeWX 2.04,2013-03-05 20:48:00,
2013-03-05 15:58:00,46.4,31.6,29.59,NNW,332,2.0,5.4,56,0.12,,,-99.99,FreeWX 2.04,2013-03-05 20:58:00,
2013-03-05 16:08:00,46.2,30.9,29.59,NW,305,1.0,4.5,55,0.04,,,-99.99,FreeWX 2.04,2013-03-05 21:08:00,
2013-03-05 16:18:00,46.2,31.5,29.59,WNW,303,2.0,5.4,56,0.04,,,-99.99,FreeWX 2.04,2013-03-05 21:18:00,
2013-03-05 16:28:00,45.7,30.4,29.59,West,281,2.0,5.4,55,0.08,,,-99.99,FreeWX 2.04,2013-03-05 21:28:00,
2013-03-05 16:38:00,45.5,30.7,29.59,NW,307,1.0,4.9,56,0.08,,,-99.99,FreeWX 2.04,2013-03-05 21:38:00,
2013-03-05 16:48:00,45.3,30.9,29.56,WSW,247,1.0,5.4,57,0.08,,,-99.99,FreeWX 2.04,2013-03-05 21:48:00,
2013-03-05 16:58:00,45.3,32.2,29.56,North,-999,0.0,4.0,60,0.12,,,-99.99,FreeWX 2.04,2013-03-05 21:58:00,
2013-03-05 17:08:00,44.8,32.9,29.56,SSW,195,4.0,5.4,63,0.12,,,-99.99,FreeWX 2.04,2013-03-05 22:08:00,
2013-03-05 17:18:00,45.1,35.2,29.56,North,355,2.0,4.5,68,0.12,,,-99.99,FreeWX 2.04,2013-03-05 22:18:00,
2013-03-05 17:28:00,45.1,35.2,29.56,SW,236,1.0,4.0,68,0.08,,,-99.99,FreeWX 2.04,2013-03-05 22:28:00,
2013-03-05 17:38:00,45.1,36.0,29.53,SSW,198,1.0,5.4,70,0.08,,,-99.99,FreeWX 2.04,2013-03-05 22:38:00,
2013-03-05 17:48:00,45.0,35.8,29.53,SW,219,2.0,5.8,70,0.08,,,-99.99,FreeWX 2.04,2013-03-05 22:48:00,
2013-03-05 17:58:00,45.1,36.0,29.53,North,-999,0.0,3.6,70,0.04,,,-99.99,FreeWX 2.04,2013-03-05 22:58:00,
2013-03-05 18:08:00,45.1,36.3,29.53,North,-999,0.0,3.6,71,0.08,,,-99.99,FreeWX 2.04,2013-03-05 23:08:00,
2013-03-05 18:18:00,45.0,35.8,29.53,WNW,288,1.0,4.0,70,0.08,,,-99.99,FreeWX 2.04,2013-03-05 23:18:00,
2013-03-05 18:28:00,45.0,35.8,29.53,North,-999,0.0,3.6,70,0.04,,,-99.99,FreeWX 2.04,2013-03-05 23:28:00,
2013-03-05 18:38:00,45.1,36.0,29.50,North,-999,0.0,5.4,70,0.08,,,-99.99,FreeWX 2.04,2013-03-05 23:38:00,
2013-03-05 18:48:00,45.1,36.0,29.50,North,-999,0.0,0.0,70,0.08,,,-99.99,FreeWX 2.04,2013-03-05 23:48:00,
2013-03-05 18:58:00,45.1,36.0,29.50,North,-999,0.0,0.0,70,0.12,,,-99.99,FreeWX 2.04,2013-03-05 23:58:00,
2013-03-05 19:08:00,45.3,36.1,29.50,North,-999,0.0,3.1,70,0.08,,,-99.99,FreeWX 2.04,2013-03-06 00:08:00,
2013-03-05 19:18:00,45.1,36.3,29.50,North,-999,0.0,4.5,71,0.12,,,-99.99,FreeWX 2.04,2013-03-06 00:18:00,
2013-03-05 19:28:00,45.1,36.7,29.50,North,-999,0.0,4.0,72,0.12,,,-99.99,FreeWX 2.04,2013-03-06 00:28:00,
2013-03-05 19:38:00,45.1,37.0,29.50,North,-999,0.0,3.6,73,0.12,,,-99.99,FreeWX 2.04,2013-03-06 00:38:00,
2013-03-05 19:48:00,45.1,37.4,29.50,East,97,2.0,4.9,74,0.12,,,-99.99,FreeWX 2.04,2013-03-06 00:48:00,
2013-03-05 19:58:00,45.9,38.5,29.50,East,100,3.0,13.0,75,0.12,,,-99.99,FreeWX 2.04,2013-03-06 00:58:00,
2013-03-05 20:08:00,44.8,36.7,29.50,East,91,8.0,17.7,73,0.08,,,-99.99,FreeWX 2.04,2013-03-06 01:08:00,
2013-03-05 20:18:00,42.3,28.0,29.53,East,79,10.0,24.2,57,0.12,,,-99.99,FreeWX 2.04,2013-03-06 01:18:00,
2013-03-05 20:28:00,40.3,25.9,29.53,East,93,7.0,16.3,56,0.16,,,-99.99,FreeWX 2.04,2013-03-06 01:28:00,
2013-03-05 20:38:00,37.6,22.1,29.56,East,94,8.0,19.9,53,0.12,,,-99.99,FreeWX 2.04,2013-03-06 01:38:00,
2013-03-05 20:48:00,36.3,21.7,29.59,East,84,7.0,16.3,55,0.12,,,-99.99,FreeWX 2.04,2013-03-06 01:48:00,
2013-03-05 20:58:00,35.4,21.7,29.59,East,95,6.0,12.5,57,0.08,,,-99.99,FreeWX 2.04,2013-03-06 01:58:00,
2013-03-05 21:08:00,35.1,22.3,29.62,ENE,75,6.0,13.9,59,0.12,,,-99.99,FreeWX 2.04,2013-03-06 02:08:00,
2013-03-05 21:18:00,34.7,22.6,29.62,East,86,5.0,15.9,61,0.08,,,-99.99,FreeWX 2.04,2013-03-06 02:18:00,
2013-03-05 21:28:00,34.3,22.6,29.62,ESE,105,5.0,13.0,62,0.04,,,-99.99,FreeWX 2.04,2013-03-06 02:28:00,
2013-03-05 21:38:00,34.0,22.6,29.62,East,88,5.0,11.6,63,0.04,,,-99.99,FreeWX 2.04,2013-03-06 02:38:00,
2013-03-05 21:48:00,33.8,23.0,29.65,East,81,4.0,14.8,64,0.04,,,-99.99,FreeWX 2.04,2013-03-06 02:48:00,
2013-03-05 21:58:00,33.6,23.2,29.65,East,97,5.0,17.2,65,0.04,,,-99.99,FreeWX 2.04,2013-03-06 02:58:00,
2013-03-05 22:08:00,33.6,23.5,29.65,East,87,4.0,11.0,66,0.00,,,-99.99,FreeWX 2.04,2013-03-06 03:08:00,
2013-03-05 22:19:00,33.4,23.7,29.65,East,96,5.0,10.5,67,0.00,,,-99.99,FreeWX 2.04,2013-03-06 03:19:00,
2013-03-05 22:29:00,33.3,23.5,29.65,East,88,5.0,14.3,67,0.00,,,-99.99,FreeWX 2.04,2013-03-06 03:29:00,
2013-03-05 22:39:00,33.1,23.0,29.65,ESE,105,5.0,11.2,66,0.00,,,-99.99,FreeWX 2.04,2013-03-06 03:39:00,
2013-03-05 22:49:00,33.1,23.0,29.65,ENE,74,6.0,15.4,66,0.00,,,-99.99,FreeWX 2.04,2013-03-06 03:49:00,
2013-03-05 22:59:00,33.1,23.0,29.65,East,90,5.0,11.6,66,0.00,,,-99.99,FreeWX 2.04,2013-03-06 03:59:00,
2013-03-05 23:09:00,32.9,22.5,29.65,East,82,5.0,13.0,65,0.00,,,-99.99,FreeWX 2.04,2013-03-06 04:09:00,
2013-03-05 23:19:00,32.7,22.6,29.65,ENE,78,4.0,11.6,66,0.00,,,-99.99,FreeWX 2.04,2013-03-06 04:19:00,
2013-03-05 23:29:00,32.5,22.1,29.65,ENE,60,6.0,13.9,65,0.00,,,-99.99,FreeWX 2.04,2013-03-06 04:29:00,
2013-03-05 23:39:00,32.5,21.4,29.65,East,88,6.0,15.4,63,0.00,,,-99.99,FreeWX 2.04,2013-03-06 04:39:00,
2013-03-05 23:49:00,32.4,20.8,29.68,East,86,5.0,15.4,62,0.00,,,-99.99,FreeWX 2.04,2013-03-06 04:49:00,
2013-03-05 23:59:00,32.2,19.9,29.68,East,84,5.0,12.1,60,0.00,,,-99.99,FreeWX 2.04,2013-03-06 04:59:00,